International Virtual Aviation Organisation

Eastern Europe and Northern Asia MCD

 
UMKK 110300Z 07002MPS CAVOK 03/02 Q1019 R24/95D NOSIG RMK QFE763/1018
QNH:(hPa/inHg/mmHg)1019 / 30.09 / 764
QFE:(hPa/inHg/mmHg)1017 / 30.04 / 763
Temperature3
Dew Point2
Visibility> 10000
WeatherCAVOK
Cloud Cover
Transition Height1000 m./3400 ft.
Transition LevelFL40
SQUAWK